createdAt,value
2022-07-29T00:00:23.164Z,12.21
2022-07-29T00:01:03.289Z,11.80
2022-07-29T00:01:44.147Z,14.51
2022-07-29T00:02:24.325Z,17.14
2022-07-29T00:03:05.389Z,14.69
2022-07-29T00:03:46.349Z,12.91
2022-07-29T00:04:27.362Z,14.90
2022-07-29T00:05:07.342Z,11.54
2022-07-29T00:05:48.192Z,13.01
2022-07-29T00:06:28.219Z,12.89
2022-07-29T00:07:09.167Z,12.95
2022-07-29T00:07:50.243Z,11.77
2022-07-29T00:08:30.147Z,11.59
2022-07-29T00:09:11.309Z,12.23
2022-07-29T00:09:52.658Z,12.90
2022-07-29T00:10:33.319Z,12.24
2022-07-29T00:11:14.203Z,12.39
2022-07-29T00:11:54.266Z,9.84
2022-07-29T00:12:35.262Z,11.25
2022-07-29T00:13:16.270Z,11.52
2022-07-29T00:13:56.178Z,10.75
2022-07-29T00:14:37.219Z,10.26
2022-07-29T00:15:18.211Z,10.90
2022-07-29T00:15:58.333Z,10.07
2022-07-29T00:16:45.304Z,11.43
2022-07-29T00:17:25.216Z,12.51
2022-07-29T00:18:06.170Z,11.88
2022-07-29T00:18:47.283Z,10.00
2022-07-29T00:19:27.173Z,10.19
2022-07-29T00:20:07.331Z,10.41
2022-07-29T00:20:47.226Z,10.81
2022-07-29T00:21:27.229Z,10.86
2022-07-29T00:22:08.230Z,12.26
2022-07-29T00:22:48.438Z,11.60
2022-07-29T00:23:29.911Z,11.29
2022-07-29T00:24:11.228Z,11.84
2022-07-29T00:24:51.176Z,10.39
2022-07-29T00:25:31.216Z,10.49
2022-07-29T00:26:16.277Z,13.06
2022-07-29T00:26:56.204Z,12.43
2022-07-29T00:27:37.282Z,10.76
2022-07-29T00:28:17.281Z,13.05
2022-07-29T00:29:30.717Z,13.69
2022-07-29T00:29:58.244Z,13.90
2022-07-29T00:30:38.176Z,12.39
2022-07-29T00:31:25.530Z,11.85
2022-07-29T00:32:21.149Z,10.90
2022-07-29T00:33:15.135Z,10.89
2022-07-29T00:34:09.164Z,11.54
2022-07-29T00:35:21.327Z,10.77
2022-07-29T00:36:15.178Z,10.06
2022-07-29T00:36:55.175Z,10.91
2022-07-29T00:37:35.254Z,11.98
2022-07-29T00:38:15.173Z,11.95
2022-07-29T00:38:59.296Z,11.60
2022-07-29T00:39:39.118Z,13.04
2022-07-29T00:40:23.338Z,11.88
2022-07-29T00:41:04.291Z,11.15
2022-07-29T00:41:44.240Z,10.96
2022-07-29T00:42:25.199Z,11.01
2022-07-29T00:43:05.301Z,11.60
2022-07-29T00:43:46.222Z,9.86
2022-07-29T00:44:26.682Z,12.13
2022-07-29T00:45:08.123Z,13.45
2022-07-29T00:45:52.236Z,11.45
2022-07-29T00:46:32.182Z,10.24
2022-07-29T00:47:13.478Z,9.66
2022-07-29T00:47:53.218Z,8.94
2022-07-29T00:48:33.243Z,11.16
2022-07-29T00:49:15.194Z,9.51
2022-07-29T00:49:55.246Z,10.30
2022-07-29T00:50:36.225Z,10.63
2022-07-29T00:51:17.394Z,10.69
2022-07-29T00:51:58.167Z,10.45
2022-07-29T00:52:40.207Z,12.31
2022-07-29T00:53:21.143Z,10.68
2022-07-29T00:54:02.227Z,11.11
2022-07-29T00:54:45.030Z,11.01
2022-07-29T00:55:26.247Z,11.25
2022-07-29T00:56:07.337Z,14.16
2022-07-29T00:56:48.205Z,11.38
2022-07-29T00:57:30.218Z,12.59
2022-07-29T00:58:11.278Z,12.96
2022-07-29T00:58:52.148Z,12.70
2022-07-29T00:59:36.393Z,12.15
2022-07-29T01:00:25.122Z,10.41
2022-07-29T01:01:06.300Z,10.52
2022-07-29T01:01:47.227Z,11.39
2022-07-29T01:02:28.124Z,10.56
2022-07-29T01:03:08.124Z,11.52
2022-07-29T01:03:48.317Z,12.15
2022-07-29T01:04:31.136Z,12.86
2022-07-29T01:05:13.938Z,10.48
2022-07-29T01:05:54.137Z,9.94
2022-07-29T01:06:34.463Z,11.57
2022-07-29T01:07:15.141Z,11.81
2022-07-29T01:07:59.297Z,11.82
2022-07-29T01:08:40.108Z,13.16
2022-07-29T01:09:42.086Z,14.19
2022-07-29T01:10:23.154Z,14.23
2022-07-29T01:11:03.202Z,12.05
2022-07-29T01:11:44.090Z,10.21
2022-07-29T01:12:34.752Z,10.56
2022-07-29T01:13:16.086Z,11.49
2022-07-29T01:13:56.395Z,10.88
2022-07-29T01:14:37.126Z,11.74
2022-07-29T01:15:17.260Z,11.91
2022-07-29T01:16:04.196Z,12.15
2022-07-29T01:17:17.177Z,12.25
2022-07-29T01:18:29.096Z,10.71
2022-07-29T01:19:36.156Z,10.44
2022-07-29T01:21:17.276Z,10.29
2022-07-29T01:22:04.200Z,11.15
2022-07-29T01:23:14.083Z,10.75
2022-07-29T01:24:55.154Z,9.56
2022-07-29T01:26:09.066Z,11.04
2022-07-29T01:27:18.180Z,13.16
2022-07-29T01:28:40.130Z,12.51
2022-07-29T01:29:42.079Z,10.14
2022-07-29T01:30:17.205Z,10.61
2022-07-29T01:31:05.088Z,9.14
2022-07-29T01:32:00.670Z,10.55
2022-07-29T01:32:45.066Z,10.89
2022-07-29T01:33:45.063Z,10.73
2022-07-29T01:34:46.037Z,10.18
2022-07-29T01:35:45.130Z,10.49
2022-07-29T01:36:34.045Z,9.64
2022-07-29T01:37:27.132Z,11.82
2022-07-29T01:38:21.095Z,12.76
2022-07-29T01:39:26.092Z,11.76
2022-07-29T01:40:08.055Z,12.14
2022-07-29T01:40:56.115Z,12.46
2022-07-29T01:41:40.068Z,13.27
2022-07-29T01:42:47.102Z,11.60
2022-07-29T01:43:48.094Z,10.05
2022-07-29T01:44:39.074Z,12.56
2022-07-29T01:45:36.073Z,13.16
2022-07-29T01:46:23.189Z,10.85
2022-07-29T01:47:07.027Z,9.52
2022-07-29T01:48:04.167Z,10.14
2022-07-29T01:48:58.135Z,11.84
2022-07-29T01:49:44.104Z,11.40
2022-07-29T01:50:26.025Z,10.06
2022-07-29T01:51:19.178Z,9.61
2022-07-29T01:52:14.989Z,9.57
2022-07-29T01:53:12.232Z,8.77
2022-07-29T01:54:51.078Z,10.88
2022-07-29T01:55:36.103Z,12.51
2022-07-29T01:56:18.016Z,12.15
2022-07-29T01:57:01.091Z,10.35
2022-07-29T01:57:44.056Z,9.41
2022-07-29T01:58:26.086Z,9.71
2022-07-29T01:59:07.022Z,10.24
2022-07-29T01:59:48.080Z,10.82
2022-07-29T02:00:30.029Z,13.26
2022-07-29T02:01:13.024Z,12.75
2022-07-29T02:01:55.074Z,9.57
2022-07-29T02:02:36.099Z,11.69
2022-07-29T02:03:19.037Z,11.29
2022-07-29T02:04:01.116Z,9.09
2022-07-29T02:04:44.069Z,9.82
2022-07-29T02:05:27.213Z,9.64
2022-07-29T02:06:10.041Z,10.86
2022-07-29T02:06:51.148Z,11.01
2022-07-29T02:07:33.022Z,8.90
2022-07-29T02:08:14.146Z,9.51
2022-07-29T02:08:56.998Z,10.41
2022-07-29T02:09:39.081Z,10.07
2022-07-29T02:10:20.056Z,10.96
2022-07-29T02:11:08.101Z,8.99
2022-07-29T02:11:58.053Z,9.01
2022-07-29T02:12:40.207Z,9.39
2022-07-29T02:13:22.073Z,10.76
2022-07-29T02:14:04.089Z,9.45
2022-07-29T02:14:57.999Z,9.31
2022-07-29T02:15:40.127Z,9.60
2022-07-29T02:16:21.041Z,9.52
2022-07-29T02:17:11.023Z,9.61
2022-07-29T02:18:41.041Z,10.94
2022-07-29T02:19:38.040Z,11.09
2022-07-29T02:20:32.041Z,8.59
2022-07-29T02:21:27.002Z,7.68
2022-07-29T02:22:21.040Z,8.85
2022-07-29T02:23:15.990Z,9.91
2022-07-29T02:24:13.405Z,8.24
2022-07-29T02:25:13.884Z,8.39
2022-07-29T02:26:10.991Z,8.68
2022-07-29T02:27:07.990Z,9.84
2022-07-29T02:27:50.116Z,8.44
2022-07-29T02:28:34.136Z,7.84
2022-07-29T02:29:14.997Z,8.32
2022-07-29T02:29:57.079Z,9.75
2022-07-29T02:30:39.010Z,9.26
2022-07-29T02:31:21.092Z,9.48
2022-07-29T02:32:03.021Z,7.11
2022-07-29T02:32:45.087Z,6.50
2022-07-29T02:33:29.108Z,8.88
2022-07-29T02:34:16.598Z,9.61
2022-07-29T02:35:01.004Z,9.00
2022-07-29T02:35:41.066Z,8.80
2022-07-29T02:36:21.989Z,8.19
2022-07-29T02:37:03.071Z,8.18
2022-07-29T02:37:45.028Z,9.07
2022-07-29T02:38:52.075Z,9.38
2022-07-29T02:39:47.017Z,7.93
2022-07-29T02:40:40.977Z,7.43
2022-07-29T02:41:43.082Z,7.22
2022-07-29T02:42:37.989Z,7.11
2022-07-29T02:43:31.977Z,7.18
2022-07-29T02:44:20.371Z,7.39
2022-07-29T02:45:01.111Z,7.54
2022-07-29T02:45:44.973Z,7.76
2022-07-29T02:46:32.380Z,6.46
2022-07-29T02:47:26.982Z,7.31
2022-07-29T02:48:08.106Z,7.53
2022-07-29T02:49:12.122Z,7.50
2022-07-29T02:50:25.027Z,7.70
2022-07-29T02:51:10.043Z,6.49
2022-07-29T02:52:42.970Z,7.20
2022-07-29T02:53:33.121Z,8.48
2022-07-29T02:54:45.014Z,7.97
2022-07-29T02:55:50.965Z,7.57
2022-07-29T02:56:47.056Z,8.25
2022-07-29T02:57:55.456Z,8.48
2022-07-29T02:59:02.046Z,7.71
2022-07-29T02:59:56.968Z,8.01
2022-07-29T03:00:53.016Z,7.78
2022-07-29T03:01:48.091Z,7.65
2022-07-29T03:02:43.985Z,7.82
2022-07-29T03:03:40.992Z,8.52
2022-07-29T03:04:37.154Z,9.07
2022-07-29T03:05:34.003Z,8.96
2022-07-29T03:06:37.623Z,8.55
2022-07-29T03:07:17.138Z,8.26
2022-07-29T03:08:09.016Z,7.07
2022-07-29T03:08:49.010Z,7.61
2022-07-29T03:09:30.935Z,8.16
2022-07-29T03:10:13.673Z,8.35
2022-07-29T03:10:54.989Z,8.70
2022-07-29T03:11:42.197Z,7.57
2022-07-29T03:12:24.036Z,6.47
2022-07-29T03:13:11.947Z,7.59
2022-07-29T03:13:47.068Z,7.26
2022-07-29T03:14:33.941Z,6.72
2022-07-29T03:15:09.298Z,6.30
2022-07-29T03:15:57.007Z,8.36
2022-07-29T03:16:31.079Z,8.48
2022-07-29T03:17:11.967Z,7.84
2022-07-29T03:18:06.984Z,8.39
2022-07-29T03:19:01.959Z,6.81
2022-07-29T03:19:59.866Z,7.09
2022-07-29T03:20:54.022Z,8.05
2022-07-29T03:21:48.984Z,7.29
2022-07-29T03:22:36.046Z,7.18
2022-07-29T03:23:10.010Z,7.91
2022-07-29T03:23:56.945Z,7.57
2022-07-29T03:24:38.125Z,6.36
2022-07-29T03:25:27.007Z,6.74
2022-07-29T03:26:02.034Z,9.05
2022-07-29T03:26:48.930Z,7.75
2022-07-29T03:27:22.989Z,6.71
2022-07-29T03:28:04.048Z,7.01
2022-07-29T03:28:45.051Z,6.28
2022-07-29T03:29:25.970Z,6.65
2022-07-29T03:30:18.314Z,7.41
2022-07-29T03:31:02.001Z,6.89
2022-07-29T03:31:43.652Z,6.65
2022-07-29T03:32:25.330Z,7.75
2022-07-29T03:33:13.699Z,8.26
2022-07-29T03:34:07.936Z,8.00
2022-07-29T03:35:02.031Z,8.89
2022-07-29T03:35:55.916Z,7.19
2022-07-29T03:36:50.002Z,6.68
2022-07-29T03:37:44.030Z,5.96
2022-07-29T03:38:33.961Z,6.89
2022-07-29T03:39:09.120Z,8.05
2022-07-29T03:39:57.914Z,7.18
2022-07-29T03:40:46.215Z,7.40
2022-07-29T03:41:32.946Z,7.56
2022-07-29T03:42:08.863Z,9.51
2022-07-29T03:42:57.909Z,9.01
2022-07-29T03:43:33.558Z,9.05
2022-07-29T03:44:16.333Z,11.56
2022-07-29T03:44:58.076Z,10.34
2022-07-29T03:45:38.931Z,9.89
2022-07-29T03:46:19.169Z,9.29
2022-07-29T03:46:59.900Z,10.18
2022-07-29T03:47:50.242Z,9.69
2022-07-29T03:48:33.143Z,8.02
2022-07-29T03:49:14.074Z,8.63
2022-07-29T03:49:57.951Z,7.75
2022-07-29T03:50:39.037Z,8.91
2022-07-29T03:51:19.940Z,8.11
2022-07-29T03:52:13.994Z,7.25
2022-07-29T03:52:55.018Z,8.52
2022-07-29T03:53:36.462Z,7.89
2022-07-29T03:54:18.194Z,6.74
2022-07-29T03:55:05.966Z,6.60
2022-07-29T03:56:06.958Z,8.34
2022-07-29T03:57:03.968Z,6.71
2022-07-29T03:57:59.951Z,6.01
2022-07-29T03:58:53.907Z,7.15
2022-07-29T03:59:48.992Z,8.18
2022-07-29T04:00:31.936Z,7.81
2022-07-29T04:01:15.066Z,8.68
2022-07-29T04:01:55.988Z,9.11
2022-07-29T04:02:35.988Z,7.28
2022-07-29T04:03:16.985Z,5.85
2022-07-29T04:03:57.115Z,7.47
2022-07-29T04:04:42.197Z,10.00
2022-07-29T04:05:25.998Z,7.95
2022-07-29T04:06:12.931Z,6.91
2022-07-29T04:06:54.069Z,7.01
2022-07-29T04:07:34.939Z,8.49
2022-07-29T04:08:14.991Z,9.30
2022-07-29T04:08:55.918Z,9.88
2022-07-29T04:09:36.045Z,7.39
2022-07-29T04:10:16.925Z,6.78
2022-07-29T04:10:57.043Z,6.38
2022-07-29T04:12:03.420Z,7.22
2022-07-29T04:12:39.005Z,7.19
2022-07-29T04:13:18.934Z,8.02
2022-07-29T04:13:58.992Z,11.18
2022-07-29T04:14:40.910Z,9.77
2022-07-29T04:15:21.042Z,7.45
2022-07-29T04:16:01.968Z,9.31
2022-07-29T04:16:49.016Z,9.61
2022-07-29T04:17:42.947Z,7.64
2022-07-29T04:18:37.946Z,8.65
2022-07-29T04:19:31.883Z,9.09
2022-07-29T04:20:25.918Z,6.56
2022-07-29T04:21:19.906Z,7.14
2022-07-29T04:22:08.914Z,7.96
2022-07-29T04:22:43.001Z,7.59
2022-07-29T04:23:29.941Z,6.88
2022-07-29T04:24:04.000Z,7.31
2022-07-29T04:24:50.923Z,7.34
2022-07-29T04:25:25.038Z,7.82
2022-07-29T04:26:11.918Z,9.16
2022-07-29T04:26:46.057Z,9.13
2022-07-29T04:27:33.899Z,7.49
2022-07-29T04:28:08.002Z,7.61
2022-07-29T04:28:54.875Z,6.53
2022-07-29T04:29:29.018Z,6.13
2022-07-29T04:30:16.928Z,6.89
2022-07-29T04:30:51.084Z,8.35
2022-07-29T04:31:37.932Z,7.29
2022-07-29T04:32:13.074Z,6.36
2022-07-29T04:32:52.968Z,6.81
2022-07-29T04:33:33.013Z,7.88
2022-07-29T04:34:14.384Z,7.24
2022-07-29T04:34:54.953Z,5.38
2022-07-29T04:35:50.459Z,6.20
2022-07-29T04:36:34.941Z,5.34
2022-07-29T04:37:14.889Z,6.51
2022-07-29T04:38:01.911Z,7.03
2022-07-29T04:38:55.862Z,6.05
2022-07-29T04:39:49.909Z,5.15
2022-07-29T04:40:43.941Z,6.14
2022-07-29T04:41:37.873Z,6.28
2022-07-29T04:42:31.905Z,5.82
2022-07-29T04:43:26.330Z,6.04
2022-07-29T04:44:05.831Z,6.91
2022-07-29T04:44:53.864Z,5.91
2022-07-29T04:45:27.951Z,7.50
2022-07-29T04:46:14.957Z,6.76
2022-07-29T04:46:49.033Z,6.21
2022-07-29T04:47:35.910Z,5.22
2022-07-29T04:48:09.929Z,5.39
2022-07-29T04:48:50.967Z,7.76
2022-07-29T04:49:31.039Z,7.60
2022-07-29T04:50:13.911Z,7.04
2022-07-29T04:50:53.949Z,9.27
2022-07-29T04:51:34.866Z,8.89
2022-07-29T04:52:15.000Z,9.09
2022-07-29T04:52:54.850Z,8.76
2022-07-29T04:53:48.866Z,7.46
2022-07-29T04:54:29.869Z,9.02
2022-07-29T04:55:11.999Z,8.25
2022-07-29T04:55:52.869Z,7.53
2022-07-29T04:56:34.085Z,7.65
2022-07-29T04:57:14.855Z,9.55
2022-07-29T04:57:54.961Z,8.07
2022-07-29T04:58:34.888Z,7.32
2022-07-29T04:59:14.907Z,7.90
2022-07-29T04:59:49.621Z,9.01
2022-07-29T05:00:36.864Z,7.55
2022-07-29T05:01:11.043Z,7.24
2022-07-29T05:01:57.937Z,7.56
2022-07-29T05:02:32.443Z,7.95
2022-07-29T05:03:19.974Z,10.51
2022-07-29T05:04:00.150Z,10.11
2022-07-29T05:04:42.866Z,7.16
2022-07-29T05:05:24.455Z,8.61
2022-07-29T05:06:05.038Z,8.85
2022-07-29T05:06:46.330Z,8.95
2022-07-29T05:07:26.868Z,8.93
2022-07-29T05:08:07.035Z,8.77
2022-07-29T05:08:46.886Z,8.04
2022-07-29T05:09:26.938Z,9.49
2022-07-29T05:10:12.888Z,8.27
2022-07-29T05:10:53.942Z,7.63
2022-07-29T05:11:33.843Z,7.78
2022-07-29T05:12:15.914Z,6.85
2022-07-29T05:12:56.917Z,8.05
2022-07-29T05:13:47.209Z,6.06
2022-07-29T05:14:30.022Z,7.24
2022-07-29T05:15:12.029Z,7.45
2022-07-29T05:15:57.880Z,7.64
2022-07-29T05:16:41.339Z,10.01
2022-07-29T05:17:22.862Z,9.14
2022-07-29T05:18:05.989Z,8.57
2022-07-29T05:18:46.863Z,7.51
2022-07-29T05:19:28.195Z,7.14
2022-07-29T05:20:08.896Z,8.02
2022-07-29T05:20:48.959Z,9.32
2022-07-29T05:21:29.893Z,8.96
2022-07-29T05:22:11.055Z,8.65
2022-07-29T05:22:50.889Z,7.56
2022-07-29T05:23:30.949Z,7.32
2022-07-29T05:24:11.906Z,6.74
2022-07-29T05:24:51.966Z,6.15
2022-07-29T05:25:44.366Z,6.94
2022-07-29T05:26:25.905Z,7.18
2022-07-29T05:27:06.050Z,6.39
2022-07-29T05:27:48.950Z,6.88
2022-07-29T05:28:34.222Z,5.95
2022-07-29T05:29:44.819Z,6.01
2022-07-29T05:30:15.858Z,6.07
2022-07-29T05:30:56.012Z,5.65
2022-07-29T05:31:36.890Z,5.59
2022-07-29T05:32:23.868Z,5.14
2022-07-29T05:33:35.221Z,5.64
2022-07-29T05:34:30.939Z,5.03
2022-07-29T05:35:24.873Z,6.34
2022-07-29T05:36:20.890Z,5.88
2022-07-29T05:37:16.868Z,5.71
2022-07-29T05:37:57.978Z,5.81
2022-07-29T05:38:39.292Z,7.36
2022-07-29T05:39:20.903Z,10.51
2022-07-29T05:40:01.015Z,5.03
2022-07-29T05:40:42.926Z,4.13
2022-07-29T05:41:24.059Z,4.07
2022-07-29T05:42:04.981Z,5.25
2022-07-29T05:42:44.892Z,5.81
2022-07-29T05:43:27.028Z,6.38
2022-07-29T05:44:08.235Z,5.46
2022-07-29T05:44:47.859Z,4.95
2022-07-29T05:45:28.436Z,5.07
2022-07-29T05:46:08.953Z,4.41
2022-07-29T05:46:49.984Z,5.35
2022-07-29T05:47:30.914Z,4.81
2022-07-29T05:48:10.974Z,5.07
2022-07-29T05:48:51.982Z,6.05
2022-07-29T05:49:32.247Z,6.24
2022-07-29T05:50:12.823Z,6.30
2022-07-29T05:51:06.861Z,4.81
2022-07-29T05:52:00.951Z,5.16
2022-07-29T05:52:54.869Z,5.15
2022-07-29T05:53:48.828Z,5.90
2022-07-29T05:54:28.904Z,6.35
2022-07-29T05:55:08.996Z,4.84
2022-07-29T05:55:49.828Z,5.13
2022-07-29T05:56:30.010Z,5.38
2022-07-29T05:57:10.898Z,5.15
2022-07-29T05:57:50.909Z,5.50
2022-07-29T05:58:31.858Z,5.56
2022-07-29T05:59:15.540Z,5.72
2022-07-29T05:59:59.879Z,5.80
2022-07-29T06:00:39.918Z,5.80
2022-07-29T06:01:19.946Z,5.97
2022-07-29T06:02:00.044Z,6.85
2022-07-29T06:02:40.918Z,7.30
2022-07-29T06:03:20.912Z,7.04
2022-07-29T06:04:00.905Z,6.05
2022-07-29T06:04:40.946Z,6.18
2022-07-29T06:05:24.087Z,5.24
2022-07-29T06:06:05.242Z,3.36
2022-07-29T06:06:44.918Z,4.82
2022-07-29T06:07:25.119Z,5.11
2022-07-29T06:08:05.876Z,4.46
2022-07-29T06:08:45.945Z,4.96
2022-07-29T06:09:26.834Z,5.20
2022-07-29T06:10:06.958Z,5.43
2022-07-29T06:10:46.910Z,5.70
2022-07-29T06:11:27.033Z,4.25
2022-07-29T06:12:07.801Z,3.78
2022-07-29T06:12:47.920Z,4.22
2022-07-29T06:13:28.940Z,4.45
2022-07-29T06:14:08.917Z,4.89
2022-07-29T06:14:53.891Z,5.03
2022-07-29T06:15:35.030Z,6.39
2022-07-29T06:16:15.433Z,4.97
2022-07-29T06:17:09.944Z,6.24
2022-07-29T06:17:59.003Z,6.71
2022-07-29T06:18:44.853Z,6.59
2022-07-29T06:19:24.783Z,6.05
2022-07-29T06:20:07.939Z,4.21
2022-07-29T06:20:48.848Z,3.96
2022-07-29T06:21:28.960Z,4.59
2022-07-29T06:22:02.937Z,5.20
2022-07-29T06:22:49.802Z,4.75
2022-07-29T06:23:26.930Z,4.68
2022-07-29T06:24:15.151Z,4.24
2022-07-29T06:24:48.925Z,5.59
2022-07-29T06:25:36.814Z,6.00
2022-07-29T06:26:10.954Z,4.16
2022-07-29T06:26:51.883Z,4.19
2022-07-29T06:27:31.933Z,5.01
2022-07-29T06:28:13.868Z,5.38
2022-07-29T06:28:54.112Z,6.40
2022-07-29T06:29:34.802Z,4.21
2022-07-29T06:30:15.914Z,3.74
2022-07-29T06:30:55.823Z,4.64
2022-07-29T06:31:35.877Z,4.44
2022-07-29T06:32:16.807Z,3.76
2022-07-29T06:32:57.936Z,4.85
2022-07-29T06:33:37.851Z,5.57
2022-07-29T06:34:18.151Z,5.01
2022-07-29T06:35:32.017Z,3.16
2022-07-29T06:36:00.753Z,3.58
2022-07-29T06:36:45.097Z,4.59
2022-07-29T06:37:32.825Z,4.89
2022-07-29T06:38:31.816Z,4.95
2022-07-29T06:39:29.899Z,3.74
2022-07-29T06:40:44.858Z,4.36
2022-07-29T06:41:41.865Z,4.68
2022-07-29T06:42:39.604Z,4.81
2022-07-29T06:43:33.782Z,4.40
2022-07-29T06:44:27.845Z,3.53
2022-07-29T06:45:21.898Z,3.45
2022-07-29T06:46:23.123Z,6.20
2022-07-29T06:47:17.911Z,6.01
2022-07-29T06:47:58.979Z,3.85
2022-07-29T06:48:39.969Z,3.71
2022-07-29T06:49:21.945Z,3.71
2022-07-29T06:50:02.535Z,3.53
2022-07-29T06:50:48.830Z,4.41
2022-07-29T06:51:30.901Z,3.78
2022-07-29T06:52:11.860Z,4.47
2022-07-29T06:52:52.003Z,6.19
2022-07-29T06:53:34.879Z,4.75
2022-07-29T06:54:15.185Z,4.99
2022-07-29T06:54:55.851Z,4.34
2022-07-29T06:55:39.646Z,3.94
2022-07-29T06:56:21.794Z,4.44
2022-07-29T06:57:02.936Z,3.89
2022-07-29T06:57:43.833Z,4.50
2022-07-29T06:58:24.017Z,4.03
2022-07-29T06:59:04.842Z,4.51
2022-07-29T06:59:44.865Z,4.06
2022-07-29T07:00:25.866Z,4.57
2022-07-29T07:01:09.061Z,4.69
2022-07-29T07:01:52.212Z,3.60
2022-07-29T07:02:42.018Z,4.10
2022-07-29T07:03:23.806Z,4.60
2022-07-29T07:04:03.908Z,3.94
2022-07-29T07:04:44.918Z,3.58
2022-07-29T07:05:25.020Z,4.04
2022-07-29T07:06:05.787Z,5.29
2022-07-29T07:06:46.919Z,3.76
2022-07-29T07:07:31.808Z,3.40
2022-07-29T07:08:13.091Z,3.66
2022-07-29T07:08:56.152Z,4.50
2022-07-29T07:09:39.979Z,6.15
2022-07-29T07:10:28.107Z,4.82
2022-07-29T07:11:17.899Z,3.35
2022-07-29T07:12:22.049Z,4.11
2022-07-29T07:13:02.876Z,4.96
2022-07-29T07:13:43.872Z,4.50
2022-07-29T07:14:24.922Z,6.07
2022-07-29T07:15:05.846Z,6.41
2022-07-29T07:15:47.916Z,3.84
2022-07-29T07:16:22.114Z,4.15
2022-07-29T07:17:11.871Z,4.00
2022-07-29T07:17:48.323Z,5.71
2022-07-29T07:18:36.118Z,7.88
2022-07-29T07:19:09.969Z,5.90
2022-07-29T07:19:59.003Z,4.70
2022-07-29T07:20:34.144Z,5.50
2022-07-29T07:21:18.742Z,5.24
2022-07-29T07:22:01.872Z,4.88
2022-07-29T07:22:44.858Z,4.13
2022-07-29T07:23:24.931Z,4.63
2022-07-29T07:24:06.890Z,5.99
2022-07-29T07:24:52.211Z,6.66
2022-07-29T07:26:29.864Z,5.24
2022-07-29T07:27:04.974Z,5.36
2022-07-29T07:28:41.986Z,5.34
2022-07-29T07:29:29.078Z,4.75
2022-07-29T07:30:06.699Z,4.69
2022-07-29T07:30:53.944Z,4.56
2022-07-29T07:31:28.052Z,5.46
2022-07-29T07:32:07.926Z,5.90
2022-07-29T07:32:48.069Z,5.50
2022-07-29T07:33:30.003Z,3.95
2022-07-29T07:34:14.087Z,4.13
2022-07-29T07:34:59.324Z,5.04
2022-07-29T07:35:46.276Z,5.11
2022-07-29T07:36:28.908Z,5.89
2022-07-29T07:37:15.914Z,6.81
2022-07-29T07:38:11.221Z,4.71
2022-07-29T07:39:27.628Z,4.65
2022-07-29T07:40:21.767Z,4.49
2022-07-29T07:41:15.691Z,5.36
2022-07-29T07:42:39.148Z,5.46
2022-07-29T07:43:24.986Z,3.80
2022-07-29T07:44:16.008Z,3.46
2022-07-29T07:45:12.118Z,3.76
2022-07-29T07:45:58.944Z,5.31
2022-07-29T07:46:34.030Z,3.89
2022-07-29T07:47:27.947Z,3.81
2022-07-29T07:48:08.988Z,4.05
2022-07-29T07:49:03.841Z,3.55
2022-07-29T07:49:57.784Z,3.21
2022-07-29T07:50:53.812Z,3.96
2022-07-29T07:51:50.948Z,4.49
2022-07-29T07:52:44.871Z,5.38
2022-07-29T07:53:31.795Z,3.20
2022-07-29T07:54:08.146Z,3.84
2022-07-29T07:54:55.829Z,4.49
2022-07-29T07:55:47.467Z,4.88
2022-07-29T07:56:38.103Z,3.47
2022-07-29T07:57:12.958Z,3.26
2022-07-29T07:58:01.154Z,2.80
2022-07-29T07:58:42.900Z,3.97
2022-07-29T07:59:36.968Z,2.89
2022-07-29T08:00:31.716Z,3.46
2022-07-29T08:01:49.960Z,4.01
2022-07-29T08:02:42.810Z,2.81
2022-07-29T08:03:17.417Z,3.56
2022-07-29T08:04:04.835Z,3.70
2022-07-29T08:04:41.329Z,3.92
2022-07-29T08:05:28.894Z,3.50
2022-07-29T08:06:04.039Z,4.20
2022-07-29T08:06:50.826Z,5.30
2022-07-29T08:07:24.526Z,4.22
2022-07-29T08:08:16.082Z,4.78
2022-07-29T08:08:51.909Z,3.90
2022-07-29T08:09:34.809Z,3.84
2022-07-29T08:10:09.457Z,3.75
2022-07-29T08:10:53.981Z,2.30
2022-07-29T08:11:34.838Z,3.44
2022-07-29T08:12:19.979Z,5.55
2022-07-29T08:13:00.833Z,4.24
2022-07-29T08:13:44.903Z,2.75
2022-07-29T08:14:24.965Z,3.19
2022-07-29T08:15:06.981Z,5.10
2022-07-29T08:15:46.091Z,4.05
2022-07-29T08:16:20.830Z,3.34
2022-07-29T08:17:02.033Z,2.81
2022-07-29T08:17:37.014Z,3.30
2022-07-29T08:18:11.604Z,3.39
2022-07-29T08:18:53.803Z,3.19
2022-07-29T08:19:29.869Z,2.53
2022-07-29T08:20:04.660Z,2.92
2022-07-29T08:20:48.113Z,3.17
2022-07-29T08:21:22.888Z,3.38
2022-07-29T08:21:56.613Z,2.05
2022-07-29T08:22:38.018Z,2.47
2022-07-29T08:23:13.889Z,2.99
2022-07-29T08:24:02.883Z,2.30
2022-07-29T08:24:51.777Z,3.01
2022-07-29T08:25:26.116Z,4.79
2022-07-29T08:26:06.778Z,4.38
2022-07-29T08:26:48.851Z,3.64
2022-07-29T08:27:44.992Z,3.38
2022-07-29T08:28:25.948Z,2.83
2022-07-29T08:29:06.728Z,3.49
2022-07-29T08:29:47.916Z,2.85
2022-07-29T08:30:28.731Z,2.29
2022-07-29T08:31:15.870Z,2.66
2022-07-29T08:31:49.746Z,3.20
2022-07-29T08:32:55.620Z,3.92
2022-07-29T08:33:30.537Z,4.32
2022-07-29T08:34:18.725Z,3.53
2022-07-29T08:34:59.648Z,5.32
2022-07-29T08:35:48.898Z,4.79
2022-07-29T08:36:28.893Z,3.51
2022-07-29T08:37:09.817Z,4.68
2022-07-29T08:39:17.439Z,4.57
2022-07-29T08:40:17.824Z,3.13
2022-07-29T08:40:59.917Z,3.71
2022-07-29T08:41:39.821Z,4.57
2022-07-29T08:42:19.906Z,4.28
2022-07-29T08:42:59.901Z,3.15
2022-07-29T08:43:42.797Z,3.80
2022-07-29T08:44:30.866Z,3.55
2022-07-29T08:45:13.819Z,2.24
2022-07-29T08:45:57.864Z,4.01
2022-07-29T08:46:38.948Z,5.34
2022-07-29T08:47:22.904Z,3.79
2022-07-29T08:48:03.839Z,3.84
2022-07-29T08:48:44.902Z,4.55
2022-07-29T08:49:25.888Z,4.74
2022-07-29T08:50:06.187Z,4.22
2022-07-29T08:50:49.103Z,4.80
2022-07-29T08:51:49.363Z,4.07
2022-07-29T08:53:26.232Z,3.29
2022-07-29T08:54:22.744Z,3.14
2022-07-29T08:55:22.873Z,3.50
2022-07-29T08:56:20.776Z,2.46
2022-07-29T08:57:19.114Z,4.10
2022-07-29T08:58:15.968Z,5.90
2022-07-29T08:58:57.703Z,5.20
2022-07-29T08:59:39.216Z,3.64
2022-07-29T09:00:21.703Z,5.43
2022-07-29T09:01:03.881Z,3.94
2022-07-29T09:01:50.831Z,3.59
2022-07-29T09:02:31.794Z,3.46
2022-07-29T09:03:12.723Z,3.63
2022-07-29T09:03:53.806Z,4.26
2022-07-29T09:04:41.910Z,4.65
2022-07-29T09:05:24.337Z,3.96
2022-07-29T09:06:06.683Z,4.57
2022-07-29T09:06:52.833Z,4.11
2022-07-29T09:07:34.694Z,3.61
2022-07-29T09:08:14.724Z,5.03
2022-07-29T09:08:55.671Z,4.50
2022-07-29T09:09:36.886Z,4.44
2022-07-29T09:10:17.805Z,4.19
2022-07-29T09:10:58.062Z,2.71
2022-07-29T09:11:39.725Z,3.74
2022-07-29T09:12:27.806Z,3.86
2022-07-29T09:13:10.667Z,4.41
2022-07-29T09:13:51.169Z,4.49
2022-07-29T09:14:32.738Z,4.13
2022-07-29T09:15:13.817Z,4.18
2022-07-29T09:15:54.869Z,4.82
2022-07-29T09:17:01.616Z,4.57
2022-07-29T09:17:56.697Z,4.84
2022-07-29T09:18:48.775Z,4.49
2022-07-29T09:19:37.726Z,3.31
2022-07-29T09:20:23.384Z,3.38
2022-07-29T09:21:22.686Z,4.90
2022-07-29T09:22:05.271Z,4.94
2022-07-29T09:22:46.701Z,4.26
2022-07-29T09:23:26.751Z,7.81
2022-07-29T09:24:20.679Z,6.10
2022-07-29T09:25:00.728Z,3.01
2022-07-29T09:25:46.697Z,4.18
2022-07-29T09:26:33.766Z,3.74
2022-07-29T09:27:40.651Z,3.30
2022-07-29T09:28:34.758Z,4.85
2022-07-29T09:29:38.690Z,4.54
2022-07-29T09:30:32.684Z,4.34
2022-07-29T09:31:30.793Z,4.49
2022-07-29T09:32:16.717Z,4.71
2022-07-29T09:33:08.937Z,4.57
2022-07-29T09:33:49.697Z,3.78
2022-07-29T09:34:36.823Z,6.40
2022-07-29T09:35:23.682Z,7.35
2022-07-29T09:36:14.861Z,5.38
2022-07-29T09:36:58.408Z,4.49
2022-07-29T09:37:38.763Z,4.30
2022-07-29T09:38:21.772Z,5.03
2022-07-29T09:39:10.724Z,5.04
2022-07-29T09:39:47.759Z,5.04
2022-07-29T09:40:35.704Z,4.50
2022-07-29T09:41:16.070Z,3.54
2022-07-29T09:42:05.731Z,3.70
2022-07-29T09:42:46.712Z,4.84
2022-07-29T09:43:41.653Z,4.39
2022-07-29T09:45:18.565Z,3.76
2022-07-29T09:46:28.007Z,3.74
2022-07-29T09:47:21.658Z,3.86
2022-07-29T09:48:24.661Z,5.24
2022-07-29T09:49:18.903Z,5.99
2022-07-29T09:50:07.625Z,5.79
2022-07-29T09:50:48.173Z,5.05
2022-07-29T09:51:38.454Z,5.04
2022-07-29T09:52:15.967Z,3.74
2022-07-29T09:53:03.675Z,3.95
2022-07-29T09:53:50.052Z,4.34
2022-07-29T09:54:44.722Z,5.03
2022-07-29T09:55:38.709Z,5.05
2022-07-29T09:56:33.687Z,3.42
2022-07-29T09:57:42.692Z,4.25
2022-07-29T09:58:37.734Z,5.82
2022-07-29T09:59:19.680Z,4.97
2022-07-29T10:00:12.724Z,4.40
2022-07-29T10:00:58.759Z,3.75
2022-07-29T10:01:38.797Z,4.83
2022-07-29T10:02:23.908Z,4.70
2022-07-29T10:03:07.871Z,4.36
2022-07-29T10:04:00.684Z,5.64
2022-07-29T10:04:46.636Z,3.65
2022-07-29T10:05:36.164Z,4.76
2022-07-29T10:06:19.104Z,7.20
2022-07-29T10:07:09.630Z,7.63
2022-07-29T10:08:04.776Z,4.96
2022-07-29T10:08:45.657Z,5.49
2022-07-29T10:09:31.722Z,4.30
2022-07-29T10:10:12.681Z,4.03